sensor_id;sensor_type;location;lat;lon;timestamp;P1;durP1;ratioP1;P2;durP2;ratioP2
42886;SDS011;29032;56.028;92.904;2023-02-01T00:04:36;62.03;;;24.40;;
42886;SDS011;29032;56.028;92.904;2023-02-01T00:09:39;61.87;;;22.43;;
42886;SDS011;29032;56.028;92.904;2023-02-01T00:14:41;55.90;;;22.70;;
42886;SDS011;29032;56.028;92.904;2023-02-01T00:19:44;66.17;;;23.50;;
42886;SDS011;29032;56.028;92.904;2023-02-01T00:24:46;48.33;;;18.83;;
42886;SDS011;29032;56.028;92.904;2023-02-01T00:29:48;51.57;;;19.13;;
42886;SDS011;29032;56.028;92.904;2023-02-01T00:34:52;56.73;;;19.20;;
42886;SDS011;29032;56.028;92.904;2023-02-01T00:39:54;49.87;;;17.60;;
42886;SDS011;29032;56.028;92.904;2023-02-01T00:44:56;48.50;;;17.27;;
42886;SDS011;29032;56.028;92.904;2023-02-01T00:50:00;47.47;;;18.23;;
42886;SDS011;29032;56.028;92.904;2023-02-01T00:55:02;71.03;;;25.17;;
42886;SDS011;29032;56.028;92.904;2023-02-01T01:00:05;106.77;;;37.67;;
42886;SDS011;29032;56.028;92.904;2023-02-01T01:05:09;142.83;;;53.27;;
42886;SDS011;29032;56.028;92.904;2023-02-01T01:10:12;155.30;;;57.37;;
42886;SDS011;29032;56.028;92.904;2023-02-01T01:15:14;154.90;;;57.33;;
42886;SDS011;29032;56.028;92.904;2023-02-01T01:20:18;141.30;;;53.93;;
42886;SDS011;29032;56.028;92.904;2023-02-01T01:25:20;140.37;;;52.47;;
42886;SDS011;29032;56.028;92.904;2023-02-01T01:30:22;125.57;;;48.70;;
42886;SDS011;29032;56.028;92.904;2023-02-01T01:35:26;115.37;;;45.90;;
42886;SDS011;29032;56.028;92.904;2023-02-01T01:40:30;112.43;;;41.43;;
42886;SDS011;29032;56.028;92.904;2023-02-01T01:45:33;113.47;;;41.97;;
42886;SDS011;29032;56.028;92.904;2023-02-01T01:50:38;114.70;;;42.00;;
42886;SDS011;29032;56.028;92.904;2023-02-01T01:55:43;114.03;;;40.13;;
42886;SDS011;29032;56.028;92.904;2023-02-01T02:00:47;110.83;;;40.73;;
42886;SDS011;29032;56.028;92.904;2023-02-01T02:05:52;109.60;;;39.73;;
42886;SDS011;29032;56.028;92.904;2023-02-01T02:10:58;120.77;;;44.70;;
42886;SDS011;29032;56.028;92.904;2023-02-01T02:16:05;119.40;;;43.07;;
42886;SDS011;29032;56.028;92.904;2023-02-01T02:21:25;96.37;;;40.97;;
42886;SDS011;29032;56.028;92.904;2023-02-01T02:26:59;71.93;;;28.67;;
42886;SDS011;29032;56.028;92.904;2023-02-01T02:37:38;66.40;;;21.73;;
42886;SDS011;29032;56.028;92.904;2023-02-01T02:42:46;56.73;;;21.00;;
42886;SDS011;29032;56.028;92.904;2023-02-01T02:47:57;64.57;;;21.10;;
42886;SDS011;29032;56.028;92.904;2023-02-01T02:53:12;55.30;;;21.10;;
42886;SDS011;29032;56.028;92.904;2023-02-01T02:58:17;54.97;;;21.23;;
42886;SDS011;29032;56.028;92.904;2023-02-01T03:03:22;59.70;;;23.50;;
42886;SDS011;29032;56.028;92.904;2023-02-01T03:08:26;62.97;;;23.00;;
42886;SDS011;29032;56.028;92.904;2023-02-01T03:13:33;65.47;;;23.10;;
42886;SDS011;29032;56.028;92.904;2023-02-01T03:18:45;54.87;;;22.23;;
42886;SDS011;29032;56.028;92.904;2023-02-01T03:23:55;71.47;;;24.93;;
42886;SDS011;29032;56.028;92.904;2023-02-01T03:29:02;63.13;;;22.03;;
42886;SDS011;29032;56.028;92.904;2023-02-01T03:34:10;57.40;;;22.50;;
42886;SDS011;29032;56.028;92.904;2023-02-01T03:39:17;53.43;;;21.20;;
42886;SDS011;29032;56.028;92.904;2023-02-01T03:44:26;57.57;;;21.97;;
42886;SDS011;29032;56.028;92.904;2023-02-01T03:49:33;58.03;;;21.13;;
42886;SDS011;29032;56.028;92.904;2023-02-01T03:54:41;54.50;;;22.42;;
42886;SDS011;29032;56.028;92.904;2023-02-01T03:59:44;56.17;;;21.50;;
42886;SDS011;29032;56.028;92.904;2023-02-01T04:04:47;61.20;;;24.63;;
42886;SDS011;29032;56.028;92.904;2023-02-01T04:09:53;61.87;;;23.10;;
42886;SDS011;29032;56.028;92.904;2023-02-01T04:14:55;62.80;;;24.03;;
42886;SDS011;29032;56.028;92.904;2023-02-01T04:19:57;70.40;;;25.33;;
42886;SDS011;29032;56.028;92.904;2023-02-01T04:25:01;67.20;;;25.47;;
42886;SDS011;29032;56.028;92.904;2023-02-01T04:30:03;71.90;;;27.30;;
42886;SDS011;29032;56.028;92.904;2023-02-01T04:35:06;83.50;;;26.77;;
42886;SDS011;29032;56.028;92.904;2023-02-01T04:40:11;75.70;;;27.20;;
42886;SDS011;29032;56.028;92.904;2023-02-01T04:45:14;66.43;;;26.70;;
42886;SDS011;29032;56.028;92.904;2023-02-01T04:50:16;63.27;;;24.50;;
42886;SDS011;29032;56.028;92.904;2023-02-01T04:55:20;58.70;;;23.43;;
42886;SDS011;29032;56.028;92.904;2023-02-01T05:00:22;55.37;;;23.87;;
42886;SDS011;29032;56.028;92.904;2023-02-01T05:05:24;57.43;;;22.30;;
42886;SDS011;29032;56.028;92.904;2023-02-01T05:10:29;55.47;;;22.57;;
42886;SDS011;29032;56.028;92.904;2023-02-01T05:15:31;71.57;;;28.80;;
42886;SDS011;29032;56.028;92.904;2023-02-01T05:20:33;85.93;;;33.30;;
42886;SDS011;29032;56.028;92.904;2023-02-01T05:25:36;70.60;;;27.87;;
42886;SDS011;29032;56.028;92.904;2023-02-01T05:30:39;61.90;;;26.50;;
42886;SDS011;29032;56.028;92.904;2023-02-01T05:35:41;54.87;;;23.73;;
42886;SDS011;29032;56.028;92.904;2023-02-01T05:40:44;51.37;;;22.37;;
42886;SDS011;29032;56.028;92.904;2023-02-01T05:45:46;57.90;;;24.27;;
42886;SDS011;29032;56.028;92.904;2023-02-01T05:50:49;69.10;;;25.43;;
42886;SDS011;29032;56.028;92.904;2023-02-01T05:55:52;57.87;;;23.67;;
42886;SDS011;29032;56.028;92.904;2023-02-01T06:00:54;51.33;;;23.30;;
42886;SDS011;29032;56.028;92.904;2023-02-01T06:05:57;53.80;;;24.00;;
42886;SDS011;29032;56.028;92.904;2023-02-01T06:11:01;56.87;;;23.07;;
42886;SDS011;29032;56.028;92.904;2023-02-01T06:16:04;52.10;;;22.60;;
42886;SDS011;29032;56.028;92.904;2023-02-01T06:21:07;48.43;;;20.57;;
42886;SDS011;29032;56.028;92.904;2023-02-01T06:26:11;46.93;;;21.40;;
42886;SDS011;29032;56.028;92.904;2023-02-01T06:31:13;50.70;;;21.70;;
42886;SDS011;29032;56.028;92.904;2023-02-01T06:36:15;53.47;;;23.70;;
42886;SDS011;29032;56.028;92.904;2023-02-01T06:41:19;51.43;;;24.93;;
42886;SDS011;29032;56.028;92.904;2023-02-01T06:46:21;60.30;;;27.00;;
42886;SDS011;29032;56.028;92.904;2023-02-01T06:51:23;56.50;;;26.07;;
42886;SDS011;29032;56.028;92.904;2023-02-01T06:56:29;61.37;;;28.07;;
42886;SDS011;29032;56.028;92.904;2023-02-01T07:01:31;58.47;;;26.87;;
42886;SDS011;29032;56.028;92.904;2023-02-01T07:06:33;53.97;;;27.57;;
42886;SDS011;29032;56.028;92.904;2023-02-01T07:11:37;55.60;;;28.60;;
42886;SDS011;29032;56.028;92.904;2023-02-01T07:16:39;59.40;;;27.50;;
42886;SDS011;29032;56.028;92.904;2023-02-01T07:21:41;51.27;;;26.03;;
42886;SDS011;29032;56.028;92.904;2023-02-01T07:26:44;56.50;;;24.80;;
42886;SDS011;29032;56.028;92.904;2023-02-01T07:31:46;51.60;;;23.93;;
42886;SDS011;29032;56.028;92.904;2023-02-01T07:36:48;49.93;;;24.33;;
42886;SDS011;29032;56.028;92.904;2023-02-01T07:41:52;53.87;;;22.40;;
42886;SDS011;29032;56.028;92.904;2023-02-01T07:46:54;48.53;;;22.50;;
42886;SDS011;29032;56.028;92.904;2023-02-01T07:51:56;50.67;;;24.03;;
42886;SDS011;29032;56.028;92.904;2023-02-01T07:57:00;46.57;;;21.70;;
42886;SDS011;29032;56.028;92.904;2023-02-01T08:02:02;45.13;;;22.40;;
42886;SDS011;29032;56.028;92.904;2023-02-01T08:07:04;48.47;;;22.47;;
42886;SDS011;29032;56.028;92.904;2023-02-01T08:12:08;46.17;;;22.70;;
42886;SDS011;29032;56.028;92.904;2023-02-01T08:17:10;39.90;;;19.00;;
42886;SDS011;29032;56.028;92.904;2023-02-01T08:22:12;34.63;;;17.33;;
42886;SDS011;29032;56.028;92.904;2023-02-01T08:27:15;35.93;;;15.60;;
42886;SDS011;29032;56.028;92.904;2023-02-01T08:32:18;30.90;;;14.73;;
42886;SDS011;29032;56.028;92.904;2023-02-01T08:37:20;32.00;;;14.17;;
42886;SDS011;29032;56.028;92.904;2023-02-01T08:42:23;35.53;;;15.83;;
42886;SDS011;29032;56.028;92.904;2023-02-01T08:47:26;32.60;;;14.70;;
42886;SDS011;29032;56.028;92.904;2023-02-01T08:52:28;28.13;;;14.80;;
42886;SDS011;29032;56.028;92.904;2023-02-01T08:57:31;29.40;;;14.10;;
42886;SDS011;29032;56.028;92.904;2023-02-01T09:02:34;38.40;;;16.67;;
42886;SDS011;29032;56.028;92.904;2023-02-01T09:07:36;33.57;;;15.73;;
42886;SDS011;29032;56.028;92.904;2023-02-01T09:12:40;37.40;;;15.57;;
42886;SDS011;29032;56.028;92.904;2023-02-01T09:17:42;30.70;;;16.67;;
42886;SDS011;29032;56.028;92.904;2023-02-01T09:22:44;31.90;;;16.53;;
42886;SDS011;29032;56.028;92.904;2023-02-01T09:27:47;33.90;;;15.73;;
42886;SDS011;29032;56.028;92.904;2023-02-01T09:32:50;40.60;;;19.23;;
42886;SDS011;29032;56.028;92.904;2023-02-01T09:37:52;34.90;;;17.13;;
42886;SDS011;29032;56.028;92.904;2023-02-01T09:43:09;35.27;;;17.47;;
42886;SDS011;29032;56.028;92.904;2023-02-01T09:48:23;40.35;;;18.52;;
42886;SDS011;29032;56.028;92.904;2023-02-01T09:53:33;43.77;;;20.83;;
42886;SDS011;29032;56.028;92.904;2023-02-01T09:58:41;121.20;;;54.42;;
42886;SDS011;29032;56.028;92.904;2023-02-01T10:03:45;126.45;;;56.10;;
42886;SDS011;29032;56.028;92.904;2023-02-01T10:09:15;114.67;;;52.97;;
42886;SDS011;29032;56.028;92.904;2023-02-01T10:14:35;128.97;;;57.33;;
42886;SDS011;29032;56.028;92.904;2023-02-01T10:19:50;133.60;;;59.50;;
42886;SDS011;29032;56.028;92.904;2023-02-01T10:25:04;138.80;;;62.67;;
42886;SDS011;29032;56.028;92.904;2023-02-01T10:30:18;144.00;;;61.87;;
42886;SDS011;29032;56.028;92.904;2023-02-01T10:35:23;128.53;;;60.57;;
42886;SDS011;29032;56.028;92.904;2023-02-01T10:40:29;128.60;;;58.03;;
42886;SDS011;29032;56.028;92.904;2023-02-01T10:45:34;132.57;;;59.13;;
42886;SDS011;29032;56.028;92.904;2023-02-01T10:50:38;122.60;;;55.77;;
42886;SDS011;29032;56.028;92.904;2023-02-01T10:55:48;123.77;;;53.60;;
42886;SDS011;29032;56.028;92.904;2023-02-01T11:00:54;103.47;;;47.57;;
42886;SDS011;29032;56.028;92.904;2023-02-01T11:05:59;102.50;;;43.03;;
42886;SDS011;29032;56.028;92.904;2023-02-01T11:11:02;95.00;;;41.63;;
42886;SDS011;29032;56.028;92.904;2023-02-01T11:16:08;103.90;;;43.27;;
42886;SDS011;29032;56.028;92.904;2023-02-01T11:21:13;99.93;;;42.53;;
42886;SDS011;29032;56.028;92.904;2023-02-01T11:26:19;96.47;;;40.37;;
42886;SDS011;29032;56.028;92.904;2023-02-01T11:31:24;90.88;;;39.78;;
42886;SDS011;29032;56.028;92.904;2023-02-01T11:36:30;119.47;;;56.20;;
42886;SDS011;29032;56.028;92.904;2023-02-01T11:41:34;143.73;;;61.43;;
42886;SDS011;29032;56.028;92.904;2023-02-01T11:46:44;137.90;;;63.73;;
42886;SDS011;29032;56.028;92.904;2023-02-01T11:51:49;147.93;;;65.47;;
42886;SDS011;29032;56.028;92.904;2023-02-01T11:57:06;177.17;;;76.97;;
42886;SDS011;29032;56.028;92.904;2023-02-01T12:02:33;176.07;;;77.57;;
42886;SDS011;29032;56.028;92.904;2023-02-01T12:07:58;166.90;;;72.90;;
42886;SDS011;29032;56.028;92.904;2023-02-01T12:13:26;161.27;;;68.87;;
42886;SDS011;29032;56.028;92.904;2023-02-01T12:18:44;182.82;;;73.22;;
42886;SDS011;29032;56.028;92.904;2023-02-01T12:24:00;196.50;;;84.65;;
42886;SDS011;29032;56.028;92.904;2023-02-01T12:29:34;208.77;;;92.57;;
42886;SDS011;29032;56.028;92.904;2023-02-01T12:35:09;201.68;;;80.22;;
42886;SDS011;29032;56.028;92.904;2023-02-01T12:40:22;193.97;;;79.77;;
42886;SDS011;29032;56.028;92.904;2023-02-01T12:45:34;186.53;;;76.17;;
42886;SDS011;29032;56.028;92.904;2023-02-01T12:50:43;190.10;;;79.30;;
42886;SDS011;29032;56.028;92.904;2023-02-01T12:55:50;260.63;;;105.53;;
42886;SDS011;29032;56.028;92.904;2023-02-01T13:00:57;419.20;;;155.03;;
42886;SDS011;29032;56.028;92.904;2023-02-01T13:06:06;453.50;;;174.50;;
42886;SDS011;29032;56.028;92.904;2023-02-01T13:11:13;291.70;;;114.50;;
42886;SDS011;29032;56.028;92.904;2023-02-01T13:16:23;249.67;;;102.53;;
42886;SDS011;29032;56.028;92.904;2023-02-01T13:21:31;205.03;;;87.17;;
42886;SDS011;29032;56.028;92.904;2023-02-01T13:26:35;163.48;;;67.38;;
42886;SDS011;29032;56.028;92.904;2023-02-01T13:31:46;157.97;;;62.77;;
42886;SDS011;29032;56.028;92.904;2023-02-01T13:37:18;142.57;;;57.43;;
42886;SDS011;29032;56.028;92.904;2023-02-01T13:42:30;125.63;;;50.73;;
42886;SDS011;29032;56.028;92.904;2023-02-01T13:47:39;124.37;;;47.63;;
42886;SDS011;29032;56.028;92.904;2023-02-01T13:52:45;125.23;;;51.80;;
42886;SDS011;29032;56.028;92.904;2023-02-01T13:58:11;119.07;;;45.37;;
42886;SDS011;29032;56.028;92.904;2023-02-01T14:03:19;124.60;;;49.63;;
42886;SDS011;29032;56.028;92.904;2023-02-01T14:08:35;128.80;;;49.30;;
42886;SDS011;29032;56.028;92.904;2023-02-01T14:13:40;122.18;;;51.75;;
42886;SDS011;29032;56.028;92.904;2023-02-01T14:18:49;98.40;;;40.13;;
42886;SDS011;29032;56.028;92.904;2023-02-01T14:24:04;82.17;;;36.40;;
42886;SDS011;29032;56.028;92.904;2023-02-01T14:29:22;71.83;;;30.93;;
42886;SDS011;29032;56.028;92.904;2023-02-01T14:34:40;66.37;;;27.57;;
42886;SDS011;29032;56.028;92.904;2023-02-01T14:39:54;51.00;;;23.20;;
42886;SDS011;29032;56.028;92.904;2023-02-01T14:50:34;61.57;;;27.83;;
42886;SDS011;29032;56.028;92.904;2023-02-01T14:55:42;76.63;;;29.70;;
42886;SDS011;29032;56.028;92.904;2023-02-01T15:00:47;77.63;;;30.40;;
42886;SDS011;29032;56.028;92.904;2023-02-01T15:05:54;80.33;;;32.57;;
42886;SDS011;29032;56.028;92.904;2023-02-01T15:10:59;89.20;;;37.87;;
42886;SDS011;29032;56.028;92.904;2023-02-01T15:16:04;84.22;;;32.55;;
42886;SDS011;29032;56.028;92.904;2023-02-01T15:21:15;64.47;;;25.27;;
42886;SDS011;29032;56.028;92.904;2023-02-01T15:26:28;57.47;;;24.80;;
42886;SDS011;29032;56.028;92.904;2023-02-01T15:31:33;53.20;;;20.63;;
42886;SDS011;29032;56.028;92.904;2023-02-01T15:36:37;44.57;;;19.57;;
42886;SDS011;29032;56.028;92.904;2023-02-01T15:41:41;54.20;;;21.53;;
42886;SDS011;29032;56.028;92.904;2023-02-01T15:46:45;58.90;;;22.30;;
42886;SDS011;29032;56.028;92.904;2023-02-01T15:51:50;58.83;;;21.87;;
42886;SDS011;29032;56.028;92.904;2023-02-01T15:56:54;126.83;;;47.73;;
42886;SDS011;29032;56.028;92.904;2023-02-01T16:02:00;84.10;;;32.30;;
42886;SDS011;29032;56.028;92.904;2023-02-01T16:07:03;75.00;;;29.33;;
42886;SDS011;29032;56.028;92.904;2023-02-01T16:12:29;72.50;;;25.37;;
42886;SDS011;29032;56.028;92.904;2023-02-01T16:17:33;76.83;;;29.20;;
42886;SDS011;29032;56.028;92.904;2023-02-01T16:22:35;69.83;;;27.30;;
42886;SDS011;29032;56.028;92.904;2023-02-01T16:27:39;124.03;;;45.50;;
42886;SDS011;29032;56.028;92.904;2023-02-01T16:32:41;127.70;;;47.67;;
42886;SDS011;29032;56.028;92.904;2023-02-01T16:37:43;122.73;;;47.43;;
42886;SDS011;29032;56.028;92.904;2023-02-01T16:42:48;212.73;;;73.47;;
42886;SDS011;29032;56.028;92.904;2023-02-01T16:47:52;222.52;;;82.40;;
42886;SDS011;29032;56.028;92.904;2023-02-01T16:52:56;228.70;;;79.43;;
42886;SDS011;29032;56.028;92.904;2023-02-01T16:57:59;202.07;;;71.50;;
42886;SDS011;29032;56.028;92.904;2023-02-01T17:03:01;165.60;;;60.33;;
42886;SDS011;29032;56.028;92.904;2023-02-01T17:08:04;184.23;;;62.80;;
42886;SDS011;29032;56.028;92.904;2023-02-01T17:13:10;176.17;;;59.83;;
42886;SDS011;29032;56.028;92.904;2023-02-01T17:18:15;144.15;;;51.15;;
42886;SDS011;29032;56.028;92.904;2023-02-01T17:23:18;135.13;;;45.17;;
42886;SDS011;29032;56.028;92.904;2023-02-01T17:28:22;125.03;;;42.13;;
42886;SDS011;29032;56.028;92.904;2023-02-01T17:33:25;108.13;;;40.60;;
42886;SDS011;29032;56.028;92.904;2023-02-01T17:38:31;111.10;;;36.40;;
42886;SDS011;29032;56.028;92.904;2023-02-01T17:43:35;103.43;;;35.07;;
42886;SDS011;29032;56.028;92.904;2023-02-01T17:48:37;98.47;;;36.37;;
42886;SDS011;29032;56.028;92.904;2023-02-01T17:53:40;103.17;;;35.40;;
42886;SDS011;29032;56.028;92.904;2023-02-01T17:58:44;124.67;;;41.07;;
42886;SDS011;29032;56.028;92.904;2023-02-01T18:03:46;106.77;;;39.93;;
42886;SDS011;29032;56.028;92.904;2023-02-01T18:08:49;94.13;;;38.03;;
42886;SDS011;29032;56.028;92.904;2023-02-01T18:13:52;90.80;;;33.63;;
42886;SDS011;29032;56.028;92.904;2023-02-01T18:18:55;87.27;;;30.70;;
42886;SDS011;29032;56.028;92.904;2023-02-01T18:23:57;82.40;;;30.53;;
42886;SDS011;29032;56.028;92.904;2023-02-01T18:29:01;98.57;;;33.00;;
42886;SDS011;29032;56.028;92.904;2023-02-01T18:34:03;90.17;;;34.10;;
42886;SDS011;29032;56.028;92.904;2023-02-01T18:39:05;85.67;;;33.77;;
42886;SDS011;29032;56.028;92.904;2023-02-01T18:44:11;99.87;;;35.87;;
42886;SDS011;29032;56.028;92.904;2023-02-01T18:49:14;97.10;;;36.20;;
42886;SDS011;29032;56.028;92.904;2023-02-01T18:54:17;83.87;;;32.77;;
42886;SDS011;29032;56.028;92.904;2023-02-01T18:59:20;91.70;;;31.93;;
42886;SDS011;29032;56.028;92.904;2023-02-01T19:04:24;115.20;;;44.17;;
42886;SDS011;29032;56.028;92.904;2023-02-01T19:09:26;114.33;;;43.13;;
42886;SDS011;29032;56.028;92.904;2023-02-01T19:14:30;145.07;;;47.83;;
42886;SDS011;29032;56.028;92.904;2023-02-01T19:19:32;142.77;;;50.03;;
42886;SDS011;29032;56.028;92.904;2023-02-01T19:24:34;129.83;;;46.57;;
42886;SDS011;29032;56.028;92.904;2023-02-01T19:29:37;120.97;;;43.97;;
42886;SDS011;29032;56.028;92.904;2023-02-01T19:34:40;106.47;;;39.70;;
42886;SDS011;29032;56.028;92.904;2023-02-01T19:39:42;103.33;;;38.03;;
42886;SDS011;29032;56.028;92.904;2023-02-01T19:44:46;84.73;;;31.87;;
42886;SDS011;29032;56.028;92.904;2023-02-01T19:49:48;107.33;;;34.63;;
42886;SDS011;29032;56.028;92.904;2023-02-01T19:54:50;155.07;;;53.27;;
42886;SDS011;29032;56.028;92.904;2023-02-01T19:59:54;162.87;;;50.20;;
42886;SDS011;29032;56.028;92.904;2023-02-01T20:04:56;145.60;;;48.60;;
42886;SDS011;29032;56.028;92.904;2023-02-01T20:09:58;135.90;;;47.17;;
42886;SDS011;29032;56.028;92.904;2023-02-01T20:15:02;110.63;;;40.73;;
42886;SDS011;29032;56.028;92.904;2023-02-01T20:20:04;110.67;;;37.17;;
42886;SDS011;29032;56.028;92.904;2023-02-01T20:25:07;147.67;;;46.73;;
42886;SDS011;29032;56.028;92.904;2023-02-01T20:30:12;176.77;;;57.40;;
42886;SDS011;29032;56.028;92.904;2023-02-01T20:35:14;189.00;;;64.10;;
42886;SDS011;29032;56.028;92.904;2023-02-01T20:40:16;204.33;;;70.00;;
42886;SDS011;29032;56.028;92.904;2023-02-01T20:45:20;237.63;;;80.53;;
42886;SDS011;29032;56.028;92.904;2023-02-01T20:50:22;148.33;;;53.53;;
42886;SDS011;29032;56.028;92.904;2023-02-01T20:55:24;121.10;;;44.97;;
42886;SDS011;29032;56.028;92.904;2023-02-01T21:00:29;103.27;;;36.50;;
42886;SDS011;29032;56.028;92.904;2023-02-01T21:05:31;89.40;;;31.37;;
42886;SDS011;29032;56.028;92.904;2023-02-01T21:10:33;80.57;;;29.83;;
42886;SDS011;29032;56.028;92.904;2023-02-01T21:15:38;73.07;;;28.40;;
42886;SDS011;29032;56.028;92.904;2023-02-01T21:20:44;54.70;;;21.20;;
42886;SDS011;29032;56.028;92.904;2023-02-01T21:25:46;48.33;;;18.73;;
42886;SDS011;29032;56.028;92.904;2023-02-01T21:30:50;41.27;;;16.63;;
42886;SDS011;29032;56.028;92.904;2023-02-01T21:35:52;41.67;;;16.23;;
42886;SDS011;29032;56.028;92.904;2023-02-01T21:40:54;50.13;;;18.00;;
42886;SDS011;29032;56.028;92.904;2023-02-01T21:45:58;51.33;;;19.37;;
42886;SDS011;29032;56.028;92.904;2023-02-01T21:51:00;48.93;;;18.47;;
42886;SDS011;29032;56.028;92.904;2023-02-01T21:56:02;50.80;;;20.20;;
42886;SDS011;29032;56.028;92.904;2023-02-01T22:01:06;45.83;;;17.43;;
42886;SDS011;29032;56.028;92.904;2023-02-01T22:06:09;40.47;;;16.73;;
42886;SDS011;29032;56.028;92.904;2023-02-01T22:11:11;41.73;;;15.47;;
42886;SDS011;29032;56.028;92.904;2023-02-01T22:16:15;42.37;;;16.57;;
42886;SDS011;29032;56.028;92.904;2023-02-01T22:21:17;36.20;;;13.90;;
42886;SDS011;29032;56.028;92.904;2023-02-01T22:26:20;35.77;;;13.43;;
42886;SDS011;29032;56.028;92.904;2023-02-01T22:31:24;30.67;;;11.87;;
42886;SDS011;29032;56.028;92.904;2023-02-01T22:36:26;28.30;;;12.37;;
42886;SDS011;29032;56.028;92.904;2023-02-01T22:41:28;24.20;;;9.40;;
42886;SDS011;29032;56.028;92.904;2023-02-01T22:46:32;26.10;;;9.40;;
42886;SDS011;29032;56.028;92.904;2023-02-01T22:51:34;36.47;;;12.17;;
42886;SDS011;29032;56.028;92.904;2023-02-01T22:56:36;39.27;;;15.20;;
42886;SDS011;29032;56.028;92.904;2023-02-01T23:01:40;42.60;;;17.23;;
42886;SDS011;29032;56.028;92.904;2023-02-01T23:06:42;46.30;;;18.43;;
42886;SDS011;29032;56.028;92.904;2023-02-01T23:11:44;49.00;;;18.93;;
42886;SDS011;29032;56.028;92.904;2023-02-01T23:16:48;55.07;;;20.70;;
42886;SDS011;29032;56.028;92.904;2023-02-01T23:21:51;67.30;;;23.77;;
42886;SDS011;29032;56.028;92.904;2023-02-01T23:26:53;59.13;;;23.50;;
42886;SDS011;29032;56.028;92.904;2023-02-01T23:31:56;51.70;;;19.10;;
42886;SDS011;29032;56.028;92.904;2023-02-01T23:36:58;46.73;;;17.63;;
42886;SDS011;29032;56.028;92.904;2023-02-01T23:42:01;47.87;;;16.07;;
42886;SDS011;29032;56.028;92.904;2023-02-01T23:47:04;48.60;;;16.17;;
42886;SDS011;29032;56.028;92.904;2023-02-01T23:52:07;44.17;;;14.97;;
42886;SDS011;29032;56.028;92.904;2023-02-01T23:57:10;33.07;;;14.90;;
